sensor_id;sensor_type;location;lat;lon;timestamp;temperature;humidity
32895;DHT22;19251;49.484;8.260;2023-03-20T00:01:13;13.90;24.90
32895;DHT22;19251;49.484;8.260;2023-03-20T00:16:20;14.00;24.90
32895;DHT22;19251;49.484;8.260;2023-03-20T00:26:28;14.00;24.90
32895;DHT22;19251;49.484;8.260;2023-03-20T00:31:37;14.00;24.90
32895;DHT22;19251;49.484;8.260;2023-03-20T00:36:40;14.00;25.00
32895;DHT22;19251;49.484;8.260;2023-03-20T00:46:59;14.20;25.10
32895;DHT22;19251;49.484;8.260;2023-03-20T00:52:02;14.00;24.90
32895;DHT22;19251;49.484;8.260;2023-03-20T00:57:11;14.00;25.00
32895;DHT22;19251;49.484;8.260;2023-03-20T01:02:14;14.00;24.90
32895;DHT22;19251;49.484;8.260;2023-03-20T01:12:22;14.00;24.90
32895;DHT22;19251;49.484;8.260;2023-03-20T01:17:25;14.00;24.90
32895;DHT22;19251;49.484;8.260;2023-03-20T01:22:27;13.90;24.80
32895;DHT22;19251;49.484;8.260;2023-03-20T01:27:30;13.90;24.90
32895;DHT22;19251;49.484;8.260;2023-03-20T01:37:35;13.80;24.90
32895;DHT22;19251;49.484;8.260;2023-03-20T01:42:37;13.80;25.00
32895;DHT22;19251;49.484;8.260;2023-03-20T01:47:39;13.80;25.10
32895;DHT22;19251;49.484;8.260;2023-03-20T01:52:47;13.70;25.20
32895;DHT22;19251;49.484;8.260;2023-03-20T01:57:51;13.60;25.10
32895;DHT22;19251;49.484;8.260;2023-03-20T02:02:54;13.60;25.20
32895;DHT22;19251;49.484;8.260;2023-03-20T02:08:04;13.50;25.20
32895;DHT22;19251;49.484;8.260;2023-03-20T02:13:10;13.50;25.30
32895;DHT22;19251;49.484;8.260;2023-03-20T02:18:14;13.50;25.40
32895;DHT22;19251;49.484;8.260;2023-03-20T02:23:28;13.50;25.40
32895;DHT22;19251;49.484;8.260;2023-03-20T02:39:06;13.50;25.80
32895;DHT22;19251;49.484;8.260;2023-03-20T02:49:40;13.60;26.10
32895;DHT22;19251;49.484;8.260;2023-03-20T02:55:09;13.60;26.10
32895;DHT22;19251;49.484;8.260;2023-03-20T03:05:23;13.70;26.40
32895;DHT22;19251;49.484;8.260;2023-03-20T03:10:29;13.70;26.50
32895;DHT22;19251;49.484;8.260;2023-03-20T03:15:35;13.70;26.70
32895;DHT22;19251;49.484;8.260;2023-03-20T03:20:39;13.80;26.70
32895;DHT22;19251;49.484;8.260;2023-03-20T03:25:42;13.70;26.70
32895;DHT22;19251;49.484;8.260;2023-03-20T03:30:45;13.80;26.80
32895;DHT22;19251;49.484;8.260;2023-03-20T03:35:47;13.80;26.90
32895;DHT22;19251;49.484;8.260;2023-03-20T03:45:54;13.80;26.90
32895;DHT22;19251;49.484;8.260;2023-03-20T03:51:01;13.80;26.90
32895;DHT22;19251;49.484;8.260;2023-03-20T03:56:05;13.80;26.90
32895;DHT22;19251;49.484;8.260;2023-03-20T04:01:09;13.80;27.00
32895;DHT22;19251;49.484;8.260;2023-03-20T04:06:14;13.80;26.90
32895;DHT22;19251;49.484;8.260;2023-03-20T04:11:23;13.80;26.90
32895;DHT22;19251;49.484;8.260;2023-03-20T04:16:26;13.80;26.90
32895;DHT22;19251;49.484;8.260;2023-03-20T04:21:28;13.90;27.00
32895;DHT22;19251;49.484;8.260;2023-03-20T04:26:30;13.90;26.90
32895;DHT22;19251;49.484;8.260;2023-03-20T04:31:33;13.90;26.90
32895;DHT22;19251;49.484;8.260;2023-03-20T04:36:36;13.90;26.80
32895;DHT22;19251;49.484;8.260;2023-03-20T04:41:38;13.90;26.80
32895;DHT22;19251;49.484;8.260;2023-03-20T04:46:41;13.90;26.80
32895;DHT22;19251;49.484;8.260;2023-03-20T04:51:43;14.00;26.90
32895;DHT22;19251;49.484;8.260;2023-03-20T04:56:46;14.00;27.00
32895;DHT22;19251;49.484;8.260;2023-03-20T05:01:49;14.00;26.90
32895;DHT22;19251;49.484;8.260;2023-03-20T05:06:52;14.00;26.90
32895;DHT22;19251;49.484;8.260;2023-03-20T05:11:55;14.00;26.90
32895;DHT22;19251;49.484;8.260;2023-03-20T05:22:05;14.00;26.80
32895;DHT22;19251;49.484;8.260;2023-03-20T05:27:08;14.00;26.80
32895;DHT22;19251;49.484;8.260;2023-03-20T05:32:12;14.00;26.80
32895;DHT22;19251;49.484;8.260;2023-03-20T05:37:14;14.10;26.80
32895;DHT22;19251;49.484;8.260;2023-03-20T05:42:17;14.10;26.80
32895;DHT22;19251;49.484;8.260;2023-03-20T05:47:19;14.10;26.80
32895;DHT22;19251;49.484;8.260;2023-03-20T05:52:23;14.10;26.70
32895;DHT22;19251;49.484;8.260;2023-03-20T05:57:25;14.10;26.70
32895;DHT22;19251;49.484;8.260;2023-03-20T06:02:28;14.20;26.80
32895;DHT22;19251;49.484;8.260;2023-03-20T06:07:31;14.20;26.70
32895;DHT22;19251;49.484;8.260;2023-03-20T06:12:33;14.20;26.80
32895;DHT22;19251;49.484;8.260;2023-03-20T06:17:36;14.30;26.80
32895;DHT22;19251;49.484;8.260;2023-03-20T06:22:39;14.30;26.80
32895;DHT22;19251;49.484;8.260;2023-03-20T06:32:44;14.30;26.90
32895;DHT22;19251;49.484;8.260;2023-03-20T06:37:47;14.30;27.00
32895;DHT22;19251;49.484;8.260;2023-03-20T06:42:50;14.30;27.00
32895;DHT22;19251;49.484;8.260;2023-03-20T06:47:52;14.30;27.10
32895;DHT22;19251;49.484;8.260;2023-03-20T06:52:55;14.30;27.10
32895;DHT22;19251;49.484;8.260;2023-03-20T06:58:02;14.30;27.10
32895;DHT22;19251;49.484;8.260;2023-03-20T07:03:04;13.50;26.50
32895;DHT22;19251;49.484;8.260;2023-03-20T07:08:07;14.30;27.20
32895;DHT22;19251;49.484;8.260;2023-03-20T07:13:09;14.30;27.30
32895;DHT22;19251;49.484;8.260;2023-03-20T07:18:13;14.40;27.50
32895;DHT22;19251;49.484;8.260;2023-03-20T07:23:15;14.60;27.60
32895;DHT22;19251;49.484;8.260;2023-03-20T07:28:18;14.70;27.60
32895;DHT22;19251;49.484;8.260;2023-03-20T07:33:23;14.80;27.30
32895;DHT22;19251;49.484;8.260;2023-03-20T07:38:25;14.70;27.10
32895;DHT22;19251;49.484;8.260;2023-03-20T07:43:29;14.60;27.10
32895;DHT22;19251;49.484;8.260;2023-03-20T07:48:35;14.60;27.20
32895;DHT22;19251;49.484;8.260;2023-03-20T07:53:37;14.50;27.30
32895;DHT22;19251;49.484;8.260;2023-03-20T07:58:40;14.60;27.30
32895;DHT22;19251;49.484;8.260;2023-03-20T08:03:42;14.60;27.20
32895;DHT22;19251;49.484;8.260;2023-03-20T08:08:45;14.70;27.10
32895;DHT22;19251;49.484;8.260;2023-03-20T08:13:47;14.60;27.10
32895;DHT22;19251;49.484;8.260;2023-03-20T08:18:49;14.60;27.10
32895;DHT22;19251;49.484;8.260;2023-03-20T08:23:51;14.60;27.00
32895;DHT22;19251;49.484;8.260;2023-03-20T08:28:53;14.70;27.10
32895;DHT22;19251;49.484;8.260;2023-03-20T08:33:56;14.80;27.20
32895;DHT22;19251;49.484;8.260;2023-03-20T08:38:58;14.90;26.80
32895;DHT22;19251;49.484;8.260;2023-03-20T08:44:00;15.00;26.70
32895;DHT22;19251;49.484;8.260;2023-03-20T08:49:02;15.00;26.60
32895;DHT22;19251;49.484;8.260;2023-03-20T08:54:05;15.00;26.40
32895;DHT22;19251;49.484;8.260;2023-03-20T08:59:08;15.00;26.30
32895;DHT22;19251;49.484;8.260;2023-03-20T09:04:10;15.00;26.30
32895;DHT22;19251;49.484;8.260;2023-03-20T09:09:12;15.00;26.40
32895;DHT22;19251;49.484;8.260;2023-03-20T09:14:16;15.00;26.30
32895;DHT22;19251;49.484;8.260;2023-03-20T09:19:18;15.00;26.40
32895;DHT22;19251;49.484;8.260;2023-03-20T09:24:21;15.00;26.30
32895;DHT22;19251;49.484;8.260;2023-03-20T09:29:23;15.00;26.40
32895;DHT22;19251;49.484;8.260;2023-03-20T09:34:25;15.00;26.50
32895;DHT22;19251;49.484;8.260;2023-03-20T09:39:27;15.00;26.50
32895;DHT22;19251;49.484;8.260;2023-03-20T09:44:49;15.10;26.50
32895;DHT22;19251;49.484;8.260;2023-03-20T09:50:05;15.10;26.20
32895;DHT22;19251;49.484;8.260;2023-03-20T09:55:12;15.10;25.90
32895;DHT22;19251;49.484;8.260;2023-03-20T10:00:19;15.10;25.60
32895;DHT22;19251;49.484;8.260;2023-03-20T10:05:23;15.10;25.40
32895;DHT22;19251;49.484;8.260;2023-03-20T10:15:49;15.40;25.00
32895;DHT22;19251;49.484;8.260;2023-03-20T10:20:56;15.70;24.70
32895;DHT22;19251;49.484;8.260;2023-03-20T10:26:18;16.00;24.70
32895;DHT22;19251;49.484;8.260;2023-03-20T10:41:54;16.90;22.10
32895;DHT22;19251;49.484;8.260;2023-03-20T10:46:57;16.90;21.10
32895;DHT22;19251;49.484;8.260;2023-03-20T10:52:01;17.00;21.40
32895;DHT22;19251;49.484;8.260;2023-03-20T10:57:05;17.20;21.30
32895;DHT22;19251;49.484;8.260;2023-03-20T11:02:11;17.50;20.30
32895;DHT22;19251;49.484;8.260;2023-03-20T11:07:18;17.70;20.40
32895;DHT22;19251;49.484;8.260;2023-03-20T11:12:22;17.90;19.60
32895;DHT22;19251;49.484;8.260;2023-03-20T11:17:27;18.10;19.00
32895;DHT22;19251;49.484;8.260;2023-03-20T11:22:29;18.30;18.60
32895;DHT22;19251;49.484;8.260;2023-03-20T11:27:32;18.50;18.00
32895;DHT22;19251;49.484;8.260;2023-03-20T11:32:39;18.80;17.10
32895;DHT22;19251;49.484;8.260;2023-03-20T11:37:43;19.10;17.00
32895;DHT22;19251;49.484;8.260;2023-03-20T11:42:56;19.40;16.30
32895;DHT22;19251;49.484;8.260;2023-03-20T11:47:59;19.60;15.20
32895;DHT22;19251;49.484;8.260;2023-03-20T11:53:24;19.60;14.70
32895;DHT22;19251;49.484;8.260;2023-03-20T11:58:27;19.60;13.50
32895;DHT22;19251;49.484;8.260;2023-03-20T12:03:44;19.40;13.40
32895;DHT22;19251;49.484;8.260;2023-03-20T12:08:49;19.10;12.90
32895;DHT22;19251;49.484;8.260;2023-03-20T12:13:52;19.00;13.10
32895;DHT22;19251;49.484;8.260;2023-03-20T12:18:59;18.90;13.00
32895;DHT22;19251;49.484;8.260;2023-03-20T12:34:45;19.00;12.00
32895;DHT22;19251;49.484;8.260;2023-03-20T12:39:51;19.10;12.10
32895;DHT22;19251;49.484;8.260;2023-03-20T12:55:17;19.40;9.70
32895;DHT22;19251;49.484;8.260;2023-03-20T13:00:39;19.60;10.30
32895;DHT22;19251;49.484;8.260;2023-03-20T13:21:52;19.90;8.10
32895;DHT22;19251;49.484;8.260;2023-03-20T13:27:03;20.10;8.20
32895;DHT22;19251;49.484;8.260;2023-03-20T13:37:25;20.40;7.00
32895;DHT22;19251;49.484;8.260;2023-03-20T13:42:30;20.30;6.80
32895;DHT22;19251;49.484;8.260;2023-03-20T13:47:34;20.30;6.50
32895;DHT22;19251;49.484;8.260;2023-03-20T13:52:38;20.40;6.60
32895;DHT22;19251;49.484;8.260;2023-03-20T13:57:57;20.60;5.90
32895;DHT22;19251;49.484;8.260;2023-03-20T14:03:39;20.90;5.90
32895;DHT22;19251;49.484;8.260;2023-03-20T14:08:34;21.10;5.70
32895;DHT22;19251;49.484;8.260;2023-03-20T14:13:40;21.50;5.70
32895;DHT22;19251;49.484;8.260;2023-03-20T14:18:44;21.60;4.40
32895;DHT22;19251;49.484;8.260;2023-03-20T14:23:49;21.50;3.80
32895;DHT22;19251;49.484;8.260;2023-03-20T14:39:21;20.40;3.10
32895;DHT22;19251;49.484;8.260;2023-03-20T14:49:49;19.80;3.70
32895;DHT22;19251;49.484;8.260;2023-03-20T14:54:53;19.70;3.60
32895;DHT22;19251;49.484;8.260;2023-03-20T14:59:55;19.50;3.60
32895;DHT22;19251;49.484;8.260;2023-03-20T15:04:57;19.30;3.80
32895;DHT22;19251;49.484;8.260;2023-03-20T15:09:59;19.10;3.60
32895;DHT22;19251;49.484;8.260;2023-03-20T15:15:04;19.00;3.70
32895;DHT22;19251;49.484;8.260;2023-03-20T15:25:17;18.60;3.60
32895;DHT22;19251;49.484;8.260;2023-03-20T15:30:20;18.50;3.70
32895;DHT22;19251;49.484;8.260;2023-03-20T15:35:24;18.40;3.40
32895;DHT22;19251;49.484;8.260;2023-03-20T15:40:27;18.20;3.40
32895;DHT22;19251;49.484;8.260;2023-03-20T15:45:44;18.10;3.50
32895;DHT22;19251;49.484;8.260;2023-03-20T15:50:50;18.00;3.40
32895;DHT22;19251;49.484;8.260;2023-03-20T16:01:08;17.60;3.10
32895;DHT22;19251;49.484;8.260;2023-03-20T16:06:17;17.50;2.90
32895;DHT22;19251;49.484;8.260;2023-03-20T16:11:20;17.30;3.10
32895;DHT22;19251;49.484;8.260;2023-03-20T16:16:23;17.20;3.00
32895;DHT22;19251;49.484;8.260;2023-03-20T16:21:35;17.10;3.10
32895;DHT22;19251;49.484;8.260;2023-03-20T16:26:41;16.90;3.20
32895;DHT22;19251;49.484;8.260;2023-03-20T16:31:45;16.80;3.20
32895;DHT22;19251;49.484;8.260;2023-03-20T16:36:52;16.80;3.30
32895;DHT22;19251;49.484;8.260;2023-03-20T16:41:56;16.70;3.60
32895;DHT22;19251;49.484;8.260;2023-03-20T16:47:00;16.20;3.30
32895;DHT22;19251;49.484;8.260;2023-03-20T16:52:04;16.50;3.90
32895;DHT22;19251;49.484;8.260;2023-03-20T16:57:13;16.40;4.20
32895;DHT22;19251;49.484;8.260;2023-03-20T17:02:38;16.30;4.60
32895;DHT22;19251;49.484;8.260;2023-03-20T17:07:40;16.20;5.10
32895;DHT22;19251;49.484;8.260;2023-03-20T17:12:43;16.10;5.20
32895;DHT22;19251;49.484;8.260;2023-03-20T17:17:45;16.00;5.10
32895;DHT22;19251;49.484;8.260;2023-03-20T17:22:47;15.90;5.00
32895;DHT22;19251;49.484;8.260;2023-03-20T17:27:50;15.80;5.50
32895;DHT22;19251;49.484;8.260;2023-03-20T17:32:52;15.80;5.70
32895;DHT22;19251;49.484;8.260;2023-03-20T17:37:54;15.80;5.80
32895;DHT22;19251;49.484;8.260;2023-03-20T17:42:56;15.70;5.90
32895;DHT22;19251;49.484;8.260;2023-03-20T17:47:58;15.70;6.20
32895;DHT22;19251;49.484;8.260;2023-03-20T17:53:00;15.70;6.40
32895;DHT22;19251;49.484;8.260;2023-03-20T17:58:02;15.60;6.70
32895;DHT22;19251;49.484;8.260;2023-03-20T18:03:05;15.60;7.20
32895;DHT22;19251;49.484;8.260;2023-03-20T18:08:13;15.50;7.40
32895;DHT22;19251;49.484;8.260;2023-03-20T18:13:16;15.40;7.50
32895;DHT22;19251;49.484;8.260;2023-03-20T18:18:21;15.40;7.70
32895;DHT22;19251;49.484;8.260;2023-03-20T18:23:25;15.30;7.80
32895;DHT22;19251;49.484;8.260;2023-03-20T18:28:27;15.30;7.90
32895;DHT22;19251;49.484;8.260;2023-03-20T18:33:29;15.20;8.10
32895;DHT22;19251;49.484;8.260;2023-03-20T18:38:31;15.20;8.20
32895;DHT22;19251;49.484;8.260;2023-03-20T18:43:33;15.10;8.40
32895;DHT22;19251;49.484;8.260;2023-03-20T18:48:35;15.10;8.60
32895;DHT22;19251;49.484;8.260;2023-03-20T18:53:37;15.10;8.80
32895;DHT22;19251;49.484;8.260;2023-03-20T18:58:43;15.00;8.90
32895;DHT22;19251;49.484;8.260;2023-03-20T19:03:46;15.00;8.90
32895;DHT22;19251;49.484;8.260;2023-03-20T19:08:49;14.90;8.90
32895;DHT22;19251;49.484;8.260;2023-03-20T19:13:51;15.00;9.30
32895;DHT22;19251;49.484;8.260;2023-03-20T19:18:55;14.90;9.30
32895;DHT22;19251;49.484;8.260;2023-03-20T19:24:00;15.00;9.50
32895;DHT22;19251;49.484;8.260;2023-03-20T19:29:03;14.90;9.50
32895;DHT22;19251;49.484;8.260;2023-03-20T19:34:10;14.90;9.60
32895;DHT22;19251;49.484;8.260;2023-03-20T19:39:32;14.90;9.70
32895;DHT22;19251;49.484;8.260;2023-03-20T19:44:34;14.90;9.80
32895;DHT22;19251;49.484;8.260;2023-03-20T19:49:36;14.90;9.90
32895;DHT22;19251;49.484;8.260;2023-03-20T19:54:38;14.90;10.10
32895;DHT22;19251;49.484;8.260;2023-03-20T20:05:24;14.90;10.30
32895;DHT22;19251;49.484;8.260;2023-03-20T20:10:28;14.90;10.30
32895;DHT22;19251;49.484;8.260;2023-03-20T20:15:31;14.90;10.40
32895;DHT22;19251;49.484;8.260;2023-03-20T20:20:35;14.80;10.40
32895;DHT22;19251;49.484;8.260;2023-03-20T20:25:57;14.70;10.40
32895;DHT22;19251;49.484;8.260;2023-03-20T20:30:59;14.90;10.60
32895;DHT22;19251;49.484;8.260;2023-03-20T20:36:11;14.80;10.60
32895;DHT22;19251;49.484;8.260;2023-03-20T20:41:33;14.80;10.60
32895;DHT22;19251;49.484;8.260;2023-03-20T20:46:35;14.80;10.60
32895;DHT22;19251;49.484;8.260;2023-03-20T20:51:37;14.80;10.80
32895;DHT22;19251;49.484;8.260;2023-03-20T21:01:42;14.80;11.10
32895;DHT22;19251;49.484;8.260;2023-03-20T21:06:44;14.70;11.20
32895;DHT22;19251;49.484;8.260;2023-03-20T21:12:07;14.70;11.30
32895;DHT22;19251;49.484;8.260;2023-03-20T21:17:11;14.70;11.40
32895;DHT22;19251;49.484;8.260;2023-03-20T21:22:13;14.70;11.60
32895;DHT22;19251;49.484;8.260;2023-03-20T21:27:17;14.70;11.80
32895;DHT22;19251;49.484;8.260;2023-03-20T21:32:20;14.60;11.90
32895;DHT22;19251;49.484;8.260;2023-03-20T21:37:22;14.60;12.00
32895;DHT22;19251;49.484;8.260;2023-03-20T21:42:44;14.60;12.20
32895;DHT22;19251;49.484;8.260;2023-03-20T21:47:47;14.50;12.30
32895;DHT22;19251;49.484;8.260;2023-03-20T21:53:09;14.60;12.60
32895;DHT22;19251;49.484;8.260;2023-03-20T21:58:31;14.40;12.70
32895;DHT22;19251;49.484;8.260;2023-03-20T22:03:53;14.30;12.60
32895;DHT22;19251;49.484;8.260;2023-03-20T22:14:38;14.20;12.70
32895;DHT22;19251;49.484;8.260;2023-03-20T22:20:00;14.20;12.80
32895;DHT22;19251;49.484;8.260;2023-03-20T22:25:22;14.10;12.80
32895;DHT22;19251;49.484;8.260;2023-03-20T22:30:44;14.10;13.00
32895;DHT22;19251;49.484;8.260;2023-03-20T22:41:29;14.00;13.20
32895;DHT22;19251;49.484;8.260;2023-03-20T22:46:52;13.90;13.40
32895;DHT22;19251;49.484;8.260;2023-03-20T22:51:54;13.90;13.40
32895;DHT22;19251;49.484;8.260;2023-03-20T22:57:16;14.00;13.50
32895;DHT22;19251;49.484;8.260;2023-03-20T23:02:18;14.00;13.60
32895;DHT22;19251;49.484;8.260;2023-03-20T23:07:20;14.00;13.70
32895;DHT22;19251;49.484;8.260;2023-03-20T23:12:22;14.00;13.70
32895;DHT22;19251;49.484;8.260;2023-03-20T23:17:25;14.00;13.80
32895;DHT22;19251;49.484;8.260;2023-03-20T23:22:28;14.00;13.90
32895;DHT22;19251;49.484;8.260;2023-03-20T23:27:30;14.00;14.00
32895;DHT22;19251;49.484;8.260;2023-03-20T23:32:34;14.00;14.00
32895;DHT22;19251;49.484;8.260;2023-03-20T23:37:38;14.00;14.10
32895;DHT22;19251;49.484;8.260;2023-03-20T23:42:40;14.00;14.20
32895;DHT22;19251;49.484;8.260;2023-03-20T23:47:42;14.00;14.20
32895;DHT22;19251;49.484;8.260;2023-03-20T23:57:59;14.00;14.40
